createdAt,value
2018-08-20T00:02:07.460Z,102251.59
2018-08-20T00:04:41.216Z,102245.10
2018-08-20T00:07:09.932Z,102241.61
2018-08-20T00:09:43.783Z,102231.98
2018-08-20T00:12:12.421Z,102238.02
2018-08-20T00:14:41.669Z,102237.72
2018-08-20T00:17:10.347Z,102240.19
2018-08-20T00:19:41.139Z,102240.13
2018-08-20T00:22:10.196Z,102239.72
2018-08-20T00:24:38.837Z,102245.75
2018-08-20T00:27:07.572Z,102240.48
2018-08-20T00:29:38.963Z,102242.30
2018-08-20T00:32:07.680Z,102243.12
2018-08-20T00:34:36.384Z,102237.02
2018-08-20T00:37:05.858Z,102237.02
2018-08-20T00:39:34.499Z,102238.23
2018-08-20T00:42:03.168Z,102240.41
2018-08-20T00:44:31.846Z,102236.52
2018-08-20T00:47:00.471Z,102238.23
2018-08-20T00:49:29.115Z,102236.52
2018-08-20T00:51:57.797Z,102237.31
2018-08-20T00:54:26.448Z,102239.09
2018-08-20T00:56:55.560Z,102243.05
2018-08-20T00:59:24.187Z,102238.98
2018-08-20T01:01:52.812Z,102240.70
2018-08-20T01:04:21.486Z,102252.02
2018-08-20T01:06:50.544Z,102243.70
2018-08-20T01:09:19.216Z,102245.88
2018-08-20T01:11:47.876Z,102245.41
2018-08-20T01:14:16.522Z,102242.21
2018-08-20T01:16:45.176Z,102232.52
2018-08-20T01:19:14.983Z,102231.66
2018-08-20T01:21:43.719Z,102227.63
2018-08-20T01:24:12.433Z,102230.27
2018-08-20T01:26:41.111Z,102232.80
2018-08-20T01:29:09.763Z,102225.84
2018-08-20T01:31:38.428Z,102227.92
2018-08-20T01:34:07.139Z,102219.14
2018-08-20T01:36:35.792Z,102222.17
2018-08-20T01:39:05.483Z,102221.22
2018-08-20T01:41:34.143Z,102210.77
2018-08-20T01:44:02.793Z,102213.69
2018-08-20T01:46:31.443Z,102220.19
2018-08-20T01:49:00.117Z,102222.83
2018-08-20T01:51:29.820Z,102224.14
2018-08-20T01:53:58.468Z,102220.58
2018-08-20T01:56:27.116Z,102218.80
2018-08-20T01:58:55.788Z,102216.80
2018-08-20T02:18:09.808Z,102217.66
2018-08-20T02:20:38.480Z,102213.23
2018-08-20T02:23:07.771Z,102205.31
2018-08-20T02:25:37.411Z,102210.52
2018-08-20T02:28:06.744Z,102207.39
2018-08-20T02:30:35.448Z,102208.25
2018-08-20T02:33:04.212Z,102203.83
2018-08-20T02:35:32.844Z,102199.86
2018-08-20T02:38:01.507Z,102198.55
2018-08-20T02:40:30.812Z,102198.55
2018-08-20T02:43:00.413Z,102195.91
2018-08-20T02:45:29.073Z,102192.13
2018-08-20T02:47:57.731Z,102191.66
2018-08-20T02:50:26.392Z,102196.47
2018-08-20T02:52:55.138Z,102191.66
2018-08-20T02:55:23.854Z,102196.94
2018-08-20T02:57:52.530Z,102186.09
2018-08-20T03:00:21.231Z,102187.41
2018-08-20T03:02:49.888Z,102184.30
2018-08-20T03:05:19.165Z,102185.70
2018-08-20T03:07:47.833Z,102176.92
2018-08-20T03:10:16.516Z,102184.38
2018-08-20T03:12:45.184Z,102184.38
2018-08-20T03:15:13.831Z,102180.52
2018-08-20T03:17:42.462Z,102182.20
2018-08-20T03:20:11.191Z,102176.10
2018-08-20T03:22:39.811Z,102174.39
2018-08-20T03:25:08.832Z,102175.24
2018-08-20T03:27:37.616Z,102181.38
2018-08-20T03:30:07.755Z,102180.06
2018-08-20T03:32:36.636Z,102176.56
2018-08-20T03:35:06.876Z,102167.57
2018-08-20T03:37:35.611Z,102177.88
2018-08-20T03:40:04.533Z,102179.20
2018-08-20T03:42:33.204Z,102180.52
2018-08-20T03:45:01.869Z,102174.85
2018-08-20T03:47:30.662Z,102175.70
2018-08-20T03:49:59.316Z,102171.75
2018-08-20T03:52:28.596Z,102171.75
2018-08-20T03:54:57.264Z,102176.56
2018-08-20T03:57:25.944Z,102165.15
2018-08-20T03:59:54.600Z,102172.14
2018-08-20T04:02:23.254Z,102168.25
2018-08-20T04:04:51.899Z,102172.21
2018-08-20T04:07:20.550Z,102170.03
2018-08-20T04:09:49.163Z,102167.40
2018-08-20T04:12:17.783Z,102164.76
2018-08-20T04:14:46.411Z,102166.08
2018-08-20T04:17:15.048Z,102164.40
2018-08-20T04:19:43.700Z,102168.36
2018-08-20T04:22:12.346Z,102167.04
2018-08-20T04:24:40.984Z,102171.46
2018-08-20T04:27:09.831Z,102178.52
2018-08-20T04:29:39.039Z,102175.13
2018-08-20T04:32:07.721Z,102175.13
2018-08-20T04:34:36.348Z,102173.88
2018-08-20T04:37:05.077Z,102176.52
2018-08-20T04:39:33.719Z,102177.02
2018-08-20T04:42:02.432Z,102174.45
2018-08-20T04:44:31.027Z,102172.67
2018-08-20T04:46:59.684Z,102176.63
2018-08-20T04:49:28.331Z,102174.55
2018-08-20T04:51:56.961Z,102176.23
2018-08-20T04:54:25.613Z,102177.55
2018-08-20T04:56:54.292Z,102169.06
2018-08-20T04:59:22.954Z,102172.84
2018-08-20T05:01:51.708Z,102165.39
2018-08-20T05:04:20.363Z,102174.16
2018-08-20T05:06:49.030Z,102179.05
2018-08-20T05:09:17.792Z,102181.22
2018-08-20T05:11:46.477Z,102175.59
2018-08-20T05:14:15.137Z,102177.37
2018-08-20T05:16:43.803Z,102172.66
2018-08-20T05:19:12.442Z,102184.89
2018-08-20T05:21:41.115Z,102182.81
2018-08-20T05:24:09.763Z,102190.34
2018-08-20T05:26:38.478Z,102186.39
2018-08-20T05:29:07.649Z,102189.52
2018-08-20T05:31:36.344Z,102195.16
2018-08-20T05:34:05.020Z,102199.58
2018-08-20T05:36:34.673Z,102192.52
2018-08-20T05:39:03.587Z,102200.73
2018-08-20T05:41:32.233Z,102192.16
2018-08-20T05:44:01.815Z,102193.66
2018-08-20T05:46:30.501Z,102195.09
2018-08-20T05:48:59.147Z,102201.48
2018-08-20T05:51:27.788Z,102195.09
2018-08-20T05:53:57.143Z,102197.73
2018-08-20T05:56:25.829Z,102209.39
2018-08-20T05:58:54.500Z,102208.86
2018-08-20T06:01:23.212Z,102210.19
2018-08-20T06:03:52.185Z,102214.50
2018-08-20T06:06:20.878Z,102208.39
2018-08-20T06:08:49.538Z,102215.28
2018-08-20T06:11:18.216Z,102218.85
2018-08-20T06:13:46.972Z,102221.89
2018-08-20T06:16:15.619Z,102236.40
2018-08-20T06:18:44.363Z,102227.23
2018-08-20T06:21:13.026Z,102232.97
2018-08-20T06:23:41.704Z,102231.19
2018-08-20T06:26:10.456Z,102229.87
2018-08-20T06:28:39.265Z,102230.34
2018-08-20T06:31:07.919Z,102231.59
2018-08-20T06:33:36.922Z,102239.97
2018-08-20T06:36:06.527Z,102232.05
2018-08-20T06:38:35.886Z,102235.61
2018-08-20T06:41:04.635Z,102222.69
2018-08-20T06:43:33.311Z,102239.67
2018-08-20T07:02:44.654Z,102256.83
2018-08-20T07:05:13.451Z,102247.13
2018-08-20T07:07:43.315Z,102249.66
2018-08-20T07:10:14.096Z,102247.88
2018-08-20T07:12:43.051Z,102251.50
2018-08-20T07:15:13.628Z,102255.75
2018-08-20T07:17:42.462Z,102261.31
2018-08-20T07:20:12.753Z,102254.62
2018-08-20T07:22:42.613Z,102251.44
2018-08-20T07:25:12.964Z,102253.05
2018-08-20T07:27:42.465Z,102256.84
2018-08-20T07:30:11.995Z,102252.14
2018-08-20T07:32:40.806Z,102251.79
2018-08-20T07:35:09.833Z,102252.94
2018-08-20T07:37:38.613Z,102246.16
2018-08-20T07:40:08.283Z,102253.55
2018-08-20T07:42:37.139Z,102244.77
2018-08-20T07:45:06.062Z,102252.69
2018-08-20T07:47:34.764Z,102255.55
2018-08-20T07:50:03.617Z,102254.52
2018-08-20T07:52:32.337Z,102254.80
2018-08-20T07:55:00.982Z,102259.91
2018-08-20T07:57:29.720Z,102259.41
2018-08-20T07:59:58.632Z,102259.23
2018-08-20T08:02:27.405Z,102256.87
2018-08-20T08:04:56.100Z,102252.73
2018-08-20T08:07:25.488Z,102253.02
2018-08-20T08:09:54.295Z,102258.13
2018-08-20T08:12:23.066Z,102260.97
2018-08-20T08:14:51.736Z,102266.90
2018-08-20T08:17:20.440Z,102261.93
2018-08-20T08:19:50.236Z,102256.64
2018-08-20T08:22:19.737Z,102260.04
2018-08-20T08:24:48.413Z,102252.47
2018-08-20T08:27:17.958Z,102252.56
2018-08-20T08:29:46.620Z,102256.45
2018-08-20T08:32:15.432Z,102265.59
2018-08-20T08:34:44.153Z,102264.56
2018-08-20T08:37:12.987Z,102263.80
2018-08-20T08:39:41.834Z,102266.55
2018-08-20T08:42:10.530Z,102263.64
2018-08-20T08:44:39.260Z,102265.59
2018-08-20T08:47:08.099Z,102267.98
2018-08-20T08:49:36.812Z,102274.80
2018-08-20T08:52:05.916Z,102275.19
2018-08-20T08:54:34.646Z,102279.82
2018-08-20T08:57:03.420Z,102279.71
2018-08-20T08:59:32.606Z,102277.45
2018-08-20T09:02:01.307Z,102281.23
2018-08-20T09:04:30.673Z,102278.41
2018-08-20T09:06:59.456Z,102283.39
2018-08-20T09:09:28.247Z,102281.42
2018-08-20T09:11:56.986Z,102276.02
2018-08-20T09:14:25.707Z,102275.91
2018-08-20T09:16:54.433Z,102276.77
2018-08-20T09:19:23.345Z,102278.66
2018-08-20T09:21:52.212Z,102274.86
2018-08-20T09:24:21.107Z,102271.55
2018-08-20T09:26:49.895Z,102279.88
2018-08-20T09:29:18.643Z,102284.20
2018-08-20T09:31:47.332Z,102280.16
2018-08-20T09:34:16.151Z,102282.80
2018-08-20T09:36:44.961Z,102278.26
2018-08-20T09:39:13.684Z,102278.64
2018-08-20T09:41:42.492Z,102290.91
2018-08-20T09:44:11.228Z,102283.47
2018-08-20T09:46:40.101Z,102284.79
2018-08-20T09:49:09.637Z,102286.59
2018-08-20T09:51:38.357Z,102279.58
2018-08-20T09:54:07.049Z,102276.35
2018-08-20T09:56:36.329Z,102280.71
2018-08-20T09:59:05.166Z,102268.06
2018-08-20T10:01:33.932Z,102272.77
2018-08-20T10:04:02.725Z,102263.79
2018-08-20T10:06:31.403Z,102267.37
2018-08-20T10:09:00.151Z,102267.26
2018-08-20T10:11:28.912Z,102267.26
2018-08-20T10:13:57.752Z,102267.34
2018-08-20T10:16:26.504Z,102258.62
2018-08-20T10:18:55.291Z,102263.64
2018-08-20T10:21:24.421Z,102256.55
2018-08-20T10:23:53.106Z,102254.92
2018-08-20T10:26:21.880Z,102256.52
2018-08-20T10:28:50.629Z,102253.75
2018-08-20T10:31:19.390Z,102254.53
2018-08-20T10:33:48.101Z,102256.47
2018-08-20T10:36:16.815Z,102253.83
2018-08-20T10:38:45.617Z,102256.13
2018-08-20T10:41:15.040Z,102256.86
2018-08-20T10:43:43.852Z,102257.80
2018-08-20T10:46:17.556Z,102254.80
2018-08-20T10:48:46.307Z,102257.80
2018-08-20T10:51:15.031Z,102259.90
2018-08-20T10:53:43.840Z,102255.42
2018-08-20T10:56:12.658Z,102253.47
2018-08-20T10:58:41.419Z,102247.38
2018-08-20T11:01:10.198Z,102247.66
2018-08-20T11:03:43.420Z,102250.42
2018-08-20T11:06:12.182Z,102246.92
2018-08-20T11:08:41.261Z,102242.47
2018-08-20T11:11:09.930Z,102247.38
2018-08-20T11:13:38.803Z,102246.26
2018-08-20T11:16:07.773Z,102245.70
2018-08-20T11:18:36.674Z,102243.33
2018-08-20T11:21:05.977Z,102242.01
2018-08-20T11:23:34.668Z,102246.92
2018-08-20T11:26:03.528Z,102241.30
2018-08-20T11:28:32.214Z,102238.72
2018-08-20T11:31:01.252Z,102247.33
2018-08-20T11:33:29.975Z,102236.05
2018-08-20T11:35:59.120Z,102236.00
2018-08-20T11:38:27.992Z,102240.63
2018-08-20T11:40:56.732Z,102243.08
2018-08-20T11:43:25.428Z,102235.06
2018-08-20T11:45:54.137Z,102244.41
2018-08-20T11:48:22.950Z,102235.98
2018-08-20T11:50:51.710Z,102240.90
2018-08-20T11:53:20.386Z,102245.25
2018-08-20T11:55:49.167Z,102239.48
2018-08-20T11:58:18.519Z,102248.05
2018-08-20T12:00:47.855Z,102242.46
2018-08-20T12:03:16.584Z,102238.89
2018-08-20T12:05:45.890Z,102238.95
2018-08-20T12:08:14.621Z,102239.92
2018-08-20T12:10:43.378Z,102231.17
2018-08-20T12:13:12.082Z,102244.25
2018-08-20T12:15:41.340Z,102246.26
2018-08-20T12:18:10.100Z,102234.66
2018-08-20T12:20:38.943Z,102233.33
2018-08-20T12:23:07.763Z,102229.50
2018-08-20T12:25:36.449Z,102224.31
2018-08-20T12:28:06.248Z,102225.45
2018-08-20T12:30:34.989Z,102228.32
2018-08-20T12:33:04.560Z,102229.95
2018-08-20T12:35:33.325Z,102231.45
2018-08-20T12:38:02.051Z,102218.19
2018-08-20T12:40:30.841Z,102230.34
2018-08-20T12:42:59.520Z,102228.41
2018-08-20T12:45:28.344Z,102226.14
2018-08-20T12:47:57.051Z,102223.32
2018-08-20T12:50:25.868Z,102228.62
2018-08-20T12:52:54.893Z,102227.82
2018-08-20T12:55:23.613Z,102231.11
2018-08-20T12:57:54.352Z,102224.53
2018-08-20T13:00:23.154Z,102221.66
2018-08-20T13:02:52.282Z,102219.95
2018-08-20T13:05:22.890Z,102221.02
2018-08-20T13:07:51.571Z,102222.56
2018-08-20T13:10:20.382Z,102217.13
2018-08-20T13:12:49.150Z,102217.20
2018-08-20T13:15:18.271Z,102216.69
2018-08-20T13:17:48.948Z,102216.91
2018-08-20T13:20:17.823Z,102224.86
2018-08-20T13:22:46.492Z,102222.33
2018-08-20T13:25:15.187Z,102212.79
2018-08-20T13:44:26.483Z,102212.97
2018-08-20T13:46:55.155Z,102206.00
2018-08-20T13:49:23.844Z,102214.81
2018-08-20T13:51:53.412Z,102208.69
2018-08-20T13:54:22.130Z,102204.78
2018-08-20T13:56:50.781Z,102207.73
2018-08-20T13:59:19.460Z,102207.51
2018-08-20T14:01:48.162Z,102210.70
2018-08-20T14:04:16.810Z,102207.06
2018-08-20T14:23:29.028Z,102200.73
2018-08-20T14:25:57.761Z,102200.22
2018-08-20T14:28:26.493Z,102195.34
2018-08-20T14:30:55.345Z,102188.67
2018-08-20T14:33:24.025Z,102197.31
2018-08-20T14:35:52.765Z,102196.80
2018-08-20T14:38:21.552Z,102191.71
2018-08-20T14:40:50.292Z,102187.85
2018-08-20T14:43:19.088Z,102186.73
2018-08-20T14:45:53.032Z,102191.92
2018-08-20T14:48:21.729Z,102188.45
2018-08-20T14:50:50.556Z,102192.43
2018-08-20T14:53:19.526Z,102190.13
2018-08-20T14:55:48.253Z,102194.95
2018-08-20T14:58:17.056Z,102182.55
2018-08-20T15:00:45.819Z,102177.12
2018-08-20T15:03:14.761Z,102183.50
2018-08-20T15:05:43.424Z,102174.17
2018-08-20T15:08:12.233Z,102177.03
2018-08-20T15:10:41.053Z,102174.50
2018-08-20T15:13:09.900Z,102173.74
2018-08-20T15:15:38.800Z,102169.13
2018-08-20T15:18:07.471Z,102168.22
2018-08-20T15:20:36.161Z,102171.80
2018-08-20T15:23:04.856Z,102174.75
2018-08-20T15:25:33.497Z,102172.25
2018-08-20T15:28:02.185Z,102173.86
2018-08-20T15:30:30.884Z,102169.42
2018-08-20T15:32:59.604Z,102170.50
2018-08-20T15:35:29.387Z,102165.82
2018-08-20T15:37:58.113Z,102167.67
2018-08-20T15:40:26.927Z,102162.28
2018-08-20T15:42:55.632Z,102158.89
2018-08-20T15:45:24.342Z,102156.83
2018-08-20T15:47:53.139Z,102161.94
2018-08-20T15:50:21.832Z,102163.47
2018-08-20T15:52:50.672Z,102155.17
2018-08-20T15:55:19.416Z,102154.79
2018-08-20T15:57:48.296Z,102157.17
2018-08-20T16:00:17.085Z,102162.66
2018-08-20T16:02:45.928Z,102161.66
2018-08-20T16:05:14.773Z,102166.41
2018-08-20T16:07:43.590Z,102174.62
2018-08-20T16:10:13.002Z,102167.12
2018-08-20T16:12:41.687Z,102171.76
2018-08-20T16:15:10.756Z,102167.83
2018-08-20T16:17:39.515Z,102165.02
2018-08-20T16:20:08.572Z,102169.19
2018-08-20T16:22:37.687Z,102168.33
2018-08-20T16:25:07.799Z,102170.59
2018-08-20T16:27:36.592Z,102166.66
2018-08-20T16:30:08.174Z,102179.13
2018-08-20T16:32:36.908Z,102170.72
2018-08-20T16:35:06.079Z,102172.98
2018-08-20T16:37:34.784Z,102166.55
2018-08-20T16:40:03.447Z,102168.34
2018-08-20T16:42:32.143Z,102167.77
2018-08-20T16:45:00.863Z,102170.53
2018-08-20T17:04:30.248Z,102160.12
2018-08-20T17:07:00.058Z,102167.51
2018-08-20T17:09:29.090Z,102160.59
2018-08-20T17:11:57.822Z,102155.10
2018-08-20T17:14:26.568Z,102154.91
2018-08-20T17:16:55.393Z,102156.12
2018-08-20T17:19:24.136Z,102152.61
2018-08-20T17:21:52.783Z,102146.97
2018-08-20T17:24:29.500Z,102145.45
2018-08-20T17:26:59.260Z,102143.20
2018-08-20T17:29:28.116Z,102143.28
2018-08-20T17:31:56.879Z,102138.41
2018-08-20T17:34:25.723Z,102137.64
2018-08-20T17:36:54.613Z,102139.08
2018-08-20T17:39:23.321Z,102132.19
2018-08-20T17:41:52.192Z,102132.77
2018-08-20T17:44:22.323Z,102131.33
2018-08-20T17:46:51.169Z,102129.81
2018-08-20T17:49:25.092Z,102138.33
2018-08-20T17:51:53.761Z,102141.55
2018-08-20T17:54:22.604Z,102139.95
2018-08-20T17:56:51.305Z,102141.83
2018-08-20T17:59:21.413Z,102137.11
2018-08-20T18:01:50.168Z,102140.34
2018-08-20T18:04:19.387Z,102141.84
2018-08-20T18:06:51.244Z,102141.57
2018-08-20T18:09:20.019Z,102139.50
2018-08-20T18:11:49.238Z,102136.86
2018-08-20T18:14:18.807Z,102141.76
2018-08-20T18:16:47.525Z,102140.52
2018-08-20T18:19:16.596Z,102135.06
2018-08-20T18:21:45.372Z,102139.61
2018-08-20T18:24:16.052Z,102138.83
2018-08-20T18:26:52.383Z,102135.83
2018-08-20T18:29:21.218Z,102137.15
2018-08-20T18:31:57.287Z,102130.16
2018-08-20T18:34:25.980Z,102125.45
2018-08-20T18:53:37.194Z,102120.07
2018-08-20T18:56:13.396Z,102124.97
2018-08-20T18:58:42.789Z,102130.44
2018-08-20T19:01:11.597Z,102125.27
2018-08-20T19:03:45.386Z,102126.19
2018-08-20T19:06:14.592Z,102123.20
2018-08-20T19:08:43.528Z,102120.45
2018-08-20T19:11:12.740Z,102121.30
2018-08-20T19:13:41.838Z,102128.37
2018-08-20T19:16:42.132Z,102128.48
2018-08-20T19:19:10.987Z,102127.92
2018-08-20T19:21:41.366Z,102134.13
2018-08-20T19:24:10.584Z,102135.56
2018-08-20T19:26:39.411Z,102147.14
2018-08-20T19:29:32.001Z,102142.07
2018-08-20T19:32:00.769Z,102141.68
2018-08-20T19:34:29.441Z,102145.72
2018-08-20T19:36:58.169Z,102147.89
2018-08-20T19:39:26.871Z,102147.54
2018-08-20T19:41:55.570Z,102151.97
2018-08-20T19:44:24.268Z,102147.15
2018-08-20T19:46:55.859Z,102154.14
2018-08-20T19:49:24.651Z,102157.72
2018-08-20T19:51:53.416Z,102159.78
2018-08-20T19:54:22.040Z,102159.78
2018-08-20T19:56:50.772Z,102159.42
2018-08-20T19:59:38.644Z,102160.75
2018-08-20T20:02:12.671Z,102155.46
2018-08-20T20:04:41.362Z,102162.89
2018-08-20T20:07:10.082Z,102159.42
2018-08-20T20:09:38.801Z,102159.42
2018-08-20T20:12:07.552Z,102158.46
2018-08-20T20:14:44.374Z,102155.82
2018-08-20T20:17:13.116Z,102153.18
2018-08-20T20:19:41.842Z,102158.39
2018-08-20T20:22:13.254Z,102157.53
2018-08-20T20:24:41.987Z,102160.17
2018-08-20T20:27:10.814Z,102153.10
2018-08-20T20:29:39.568Z,102152.99
2018-08-20T20:32:08.300Z,102150.35
2018-08-20T20:51:20.152Z,102164.78
2018-08-20T20:53:49.079Z,102157.82
2018-08-20T20:56:17.776Z,102157.53
2018-08-20T20:58:46.454Z,102153.37
2018-08-20T21:01:15.207Z,102155.34
2018-08-20T21:03:43.896Z,102159.59
2018-08-20T21:06:12.580Z,102165.05
2018-08-20T21:08:50.408Z,102155.02
2018-08-20T21:11:20.492Z,102162.19
2018-08-20T21:13:49.390Z,102153.48
2018-08-20T21:16:21.868Z,102159.16
2018-08-20T21:18:58.206Z,102160.88
2018-08-20T21:21:27.693Z,102158.77
2018-08-20T21:23:57.640Z,102161.52
2018-08-20T21:26:26.381Z,102162.73
2018-08-20T21:28:55.479Z,102165.37
2018-08-20T21:31:26.163Z,102154.81
2018-08-20T21:33:56.088Z,102156.06
2018-08-20T21:36:24.800Z,102153.48
2018-08-20T21:38:53.456Z,102158.02
2018-08-20T21:41:29.989Z,102154.98
2018-08-20T21:43:59.662Z,102161.02
2018-08-20T21:46:28.313Z,102162.12
2018-08-20T21:48:57.071Z,102162.79
2018-08-20T21:51:27.413Z,102166.53
2018-08-20T21:53:56.116Z,102161.53
2018-08-20T21:56:25.104Z,102161.31
2018-08-20T21:58:53.771Z,102167.27
2018-08-20T22:01:22.624Z,102167.91
2018-08-20T22:03:51.225Z,102172.03
2018-08-20T22:06:19.928Z,102164.39
2018-08-20T22:08:48.600Z,102171.45
2018-08-20T22:11:17.291Z,102175.48
2018-08-20T22:13:46.005Z,102172.02
2018-08-20T22:16:20.431Z,102174.72
2018-08-20T22:18:55.168Z,102177.83
2018-08-20T22:21:24.007Z,102177.36
2018-08-20T22:23:55.975Z,102180.47
2018-08-20T22:26:24.671Z,102184.42
2018-08-20T22:28:53.367Z,102185.38
2018-08-20T22:31:22.085Z,102176.67
2018-08-20T22:33:56.940Z,102182.34
2018-08-20T22:36:26.160Z,102178.39
2018-08-20T22:38:56.896Z,102177.63
2018-08-20T22:41:26.685Z,102175.34
2018-08-20T22:43:55.392Z,102180.05
2018-08-20T22:46:24.544Z,102178.37
2018-08-20T22:48:54.908Z,102176.76
2018-08-20T22:51:24.739Z,102175.90
2018-08-20T22:53:54.335Z,102181.64
2018-08-20T22:56:24.497Z,102181.25
2018-08-20T22:58:54.472Z,102181.52
2018-08-20T23:01:23.136Z,102179.05
2018-08-20T23:03:51.856Z,102177.03
2018-08-20T23:06:20.597Z,102177.87
2018-08-20T23:08:49.314Z,102178.23
2018-08-20T23:11:33.055Z,102182.39
2018-08-20T23:14:01.720Z,102181.20
2018-08-20T23:16:30.371Z,102177.77
2018-08-20T23:18:59.031Z,102180.05
2018-08-20T23:21:32.296Z,102175.34
2018-08-20T23:24:00.937Z,102178.34
2018-08-20T23:26:29.595Z,102175.70
2018-08-20T23:28:58.304Z,102178.80
2018-08-20T23:31:26.972Z,102181.07
2018-08-20T23:33:55.637Z,102181.70
2018-08-20T23:36:24.303Z,102177.91
2018-08-20T23:38:53.016Z,102180.64
2018-08-20T23:41:21.756Z,102181.37
2018-08-20T23:44:00.647Z,102189.34
2018-08-20T23:46:50.321Z,102190.75
2018-08-20T23:49:19.009Z,102187.52
2018-08-20T23:51:47.715Z,102185.34
2018-08-20T23:54:16.399Z,102187.19
2018-08-20T23:56:45.112Z,102186.37
2018-08-20T23:59:13.795Z,102181.56
